createdAt,value
2019-03-22T00:00:48.580Z,69.90
2019-03-22T00:02:55.301Z,70.12
2019-03-22T00:05:01.948Z,70.06
2019-03-22T00:07:08.667Z,70.17
2019-03-22T00:09:15.367Z,70.19
2019-03-22T00:11:22.053Z,70.20
2019-03-22T00:13:28.716Z,70.27
2019-03-22T00:15:35.525Z,70.40
2019-03-22T00:17:42.286Z,70.41
2019-03-22T00:19:48.954Z,70.53
2019-03-22T00:21:55.726Z,70.59
2019-03-22T00:24:03.471Z,70.68
2019-03-22T00:26:10.143Z,70.68
2019-03-22T00:28:16.873Z,70.78
2019-03-22T00:30:42.794Z,70.75
2019-03-22T00:32:49.620Z,70.94
2019-03-22T00:34:56.607Z,71.03
2019-03-22T00:37:03.290Z,71.19
2019-03-22T00:39:10.026Z,71.42
2019-03-22T00:41:16.730Z,71.48
2019-03-22T00:43:23.402Z,71.45
2019-03-22T00:45:30.072Z,71.75
2019-03-22T00:47:36.762Z,71.63
2019-03-22T00:49:43.430Z,71.63
2019-03-22T00:51:51.277Z,71.78
2019-03-22T00:53:58.192Z,71.83
2019-03-22T00:56:04.915Z,71.70
2019-03-22T00:58:11.592Z,71.61
2019-03-22T01:00:18.494Z,71.73
2019-03-22T01:02:25.159Z,71.76
2019-03-22T01:04:31.927Z,71.94
2019-03-22T01:06:38.625Z,71.97
2019-03-22T01:08:45.292Z,72.12
2019-03-22T01:10:52.031Z,72.11
2019-03-22T01:12:58.804Z,71.99
2019-03-22T01:15:11.729Z,72.12
2019-03-22T01:17:18.404Z,72.18
2019-03-22T01:19:25.090Z,72.21
2019-03-22T01:21:31.769Z,72.29
2019-03-22T01:23:38.488Z,72.29
2019-03-22T01:25:45.457Z,72.21
2019-03-22T01:27:52.200Z,72.21
2019-03-22T01:29:59.025Z,72.18
2019-03-22T01:32:05.797Z,72.01
2019-03-22T01:34:12.524Z,71.99
2019-03-22T01:36:19.265Z,72.23
2019-03-22T01:38:25.960Z,72.28
2019-03-22T01:40:32.632Z,72.29
2019-03-22T01:42:40.313Z,72.45
2019-03-22T01:44:47.028Z,72.33
2019-03-22T01:46:53.686Z,72.40
2019-03-22T01:49:00.361Z,72.39
2019-03-22T01:51:07.381Z,72.43
2019-03-22T01:53:14.040Z,72.42
2019-03-22T01:55:20.707Z,72.42
2019-03-22T01:57:27.401Z,72.40
2019-03-22T01:59:34.067Z,72.50
2019-03-22T02:01:40.753Z,72.64
2019-03-22T02:03:47.450Z,72.56
2019-03-22T02:05:54.123Z,72.62
2019-03-22T02:08:00.801Z,72.73
2019-03-22T02:10:13.311Z,72.87
2019-03-22T02:12:20.199Z,72.91
2019-03-22T02:14:26.987Z,72.94
2019-03-22T02:16:33.923Z,72.98
2019-03-22T02:18:40.589Z,73.02
2019-03-22T02:20:47.339Z,72.99
2019-03-22T02:22:54.043Z,73.07
2019-03-22T02:25:00.717Z,73.02
2019-03-22T02:27:07.450Z,73.13
2019-03-22T02:29:14.144Z,73.20
2019-03-22T02:31:20.889Z,73.18
2019-03-22T02:33:27.556Z,73.30
2019-03-22T02:35:34.268Z,73.61
2019-03-22T02:37:40.937Z,73.85
2019-03-22T02:39:47.727Z,73.85
2019-03-22T02:41:54.476Z,74.42
2019-03-22T02:44:01.176Z,74.71
2019-03-22T02:46:07.888Z,74.98
2019-03-22T02:48:14.612Z,75.25
2019-03-22T02:50:21.440Z,75.28
2019-03-22T02:52:28.077Z,75.34
2019-03-22T02:54:34.798Z,75.65
2019-03-22T02:56:41.481Z,75.62
2019-03-22T02:58:48.150Z,75.79
2019-03-22T03:00:55.005Z,75.66
2019-03-22T03:03:01.675Z,75.62
2019-03-22T03:05:10.442Z,75.87
2019-03-22T03:07:17.107Z,75.81
2019-03-22T03:09:23.781Z,75.77
2019-03-22T03:11:30.591Z,75.51
2019-03-22T03:13:37.296Z,75.56
2019-03-22T03:15:44.035Z,75.49
2019-03-22T03:17:50.710Z,75.32
2019-03-22T03:19:57.410Z,75.33
2019-03-22T03:22:04.086Z,75.18
2019-03-22T03:24:10.819Z,75.21
2019-03-22T03:26:17.518Z,75.15
2019-03-22T03:28:35.952Z,75.07
2019-03-22T03:30:32.583Z,75.06
2019-03-22T03:32:39.262Z,75.21
2019-03-22T03:34:45.929Z,75.11
2019-03-22T03:36:52.602Z,75.18
2019-03-22T03:38:59.362Z,75.24
2019-03-22T03:41:06.126Z,75.26
2019-03-22T03:43:12.789Z,75.26
2019-03-22T03:45:37.504Z,75.30
2019-03-22T03:47:44.177Z,75.39
2019-03-22T03:49:50.874Z,75.45
2019-03-22T03:51:57.583Z,75.60
2019-03-22T03:54:05.428Z,76.24
2019-03-22T03:56:12.105Z,76.26
2019-03-22T03:58:18.803Z,76.65
2019-03-22T04:00:25.465Z,76.99
2019-03-22T04:02:32.132Z,77.56
2019-03-22T04:04:38.840Z,77.83
2019-03-22T04:06:45.520Z,78.01
2019-03-22T04:08:52.256Z,78.28
2019-03-22T04:10:59.023Z,78.45
2019-03-22T04:13:05.691Z,78.65
2019-03-22T04:15:13.233Z,78.85
2019-03-22T04:17:20.061Z,79.03
2019-03-22T04:19:26.725Z,79.25
2019-03-22T04:21:34.489Z,79.10
2019-03-22T04:23:41.195Z,79.05
2019-03-22T04:25:47.947Z,79.23
2019-03-22T04:27:54.622Z,79.25
2019-03-22T04:30:01.334Z,79.26
2019-03-22T04:32:08.983Z,79.28
2019-03-22T04:34:15.722Z,79.25
2019-03-22T04:36:22.534Z,79.35
2019-03-22T04:38:29.277Z,79.47
2019-03-22T04:40:36.025Z,79.29
2019-03-22T04:42:42.815Z,79.20
2019-03-22T04:44:49.536Z,79.09
2019-03-22T04:46:57.479Z,79.10
2019-03-22T04:49:04.444Z,79.14
2019-03-22T04:51:12.055Z,79.16
2019-03-22T04:53:22.993Z,79.07
2019-03-22T04:55:33.483Z,79.08
2019-03-22T04:57:41.553Z,79.06
2019-03-22T04:59:50.424Z,79.08
2019-03-22T05:02:00.199Z,79.08
2019-03-22T05:04:09.163Z,78.99
2019-03-22T05:06:19.246Z,78.82
2019-03-22T05:08:28.974Z,78.73
2019-03-22T05:10:38.446Z,78.95
2019-03-22T05:12:47.524Z,79.44
2019-03-22T05:14:54.331Z,79.86
2019-03-22T05:17:01.827Z,80.35
2019-03-22T05:19:12.300Z,80.99
2019-03-22T05:21:21.631Z,81.32
2019-03-22T05:23:30.199Z,81.49
2019-03-22T05:25:38.977Z,81.70
2019-03-22T05:27:48.465Z,81.85
2019-03-22T05:29:59.038Z,82.03
2019-03-22T05:32:11.700Z,82.08
2019-03-22T05:34:18.358Z,82.30
2019-03-22T05:36:25.113Z,82.69
2019-03-22T05:38:31.854Z,82.51
2019-03-22T05:40:38.546Z,82.49
2019-03-22T05:42:45.215Z,82.36
2019-03-22T05:44:51.902Z,82.57
2019-03-22T05:46:58.984Z,82.47
2019-03-22T05:49:05.649Z,82.76
2019-03-22T05:51:12.520Z,82.98
2019-03-22T05:53:19.223Z,83.08
2019-03-22T05:55:25.901Z,83.22
2019-03-22T05:57:33.572Z,82.90
2019-03-22T05:59:42.699Z,82.88
2019-03-22T06:01:48.788Z,82.82
2019-03-22T06:03:55.501Z,82.78
2019-03-22T06:06:02.108Z,82.75
2019-03-22T06:08:08.842Z,82.63
2019-03-22T06:10:15.511Z,82.61
2019-03-22T06:12:22.222Z,82.38
2019-03-22T06:14:28.913Z,82.43
2019-03-22T06:16:35.631Z,82.50
2019-03-22T06:18:42.332Z,82.42
2019-03-22T06:20:49.001Z,82.26
2019-03-22T06:22:55.779Z,82.08
2019-03-22T06:25:02.478Z,82.01
2019-03-22T06:27:09.135Z,81.96
2019-03-22T06:29:15.811Z,82.21
2019-03-22T06:31:22.504Z,82.10
2019-03-22T06:33:29.184Z,82.31
2019-03-22T06:35:35.846Z,81.89
2019-03-22T06:37:42.542Z,81.64
2019-03-22T06:39:49.219Z,81.15
2019-03-22T06:41:56.991Z,80.83
2019-03-22T06:44:04.855Z,80.76
2019-03-22T06:46:11.603Z,80.88
2019-03-22T06:48:18.276Z,80.55
2019-03-22T06:50:24.989Z,80.48
2019-03-22T06:52:31.727Z,80.20
2019-03-22T06:54:38.417Z,80.27
2019-03-22T06:56:45.185Z,80.06
2019-03-22T06:58:51.855Z,80.01
2019-03-22T07:00:58.589Z,79.70
2019-03-22T07:03:05.367Z,79.47
2019-03-22T07:05:13.585Z,79.24
2019-03-22T07:07:20.571Z,79.19
2019-03-22T07:09:27.355Z,78.56
2019-03-22T07:11:34.103Z,78.60
2019-03-22T07:13:40.782Z,78.53
2019-03-22T07:15:47.667Z,78.52
2019-03-22T07:17:54.348Z,77.79
2019-03-22T07:20:01.138Z,77.23
2019-03-22T07:22:07.957Z,77.01
2019-03-22T07:24:14.678Z,77.03
2019-03-22T07:26:21.432Z,76.77
2019-03-22T07:28:28.192Z,76.16
2019-03-22T07:30:34.886Z,76.12
2019-03-22T07:32:41.563Z,75.59
2019-03-22T07:34:48.336Z,75.65
2019-03-22T07:36:55.080Z,75.40
2019-03-22T07:39:02.068Z,74.92
2019-03-22T07:41:08.871Z,75.23
2019-03-22T07:43:15.618Z,75.05
2019-03-22T07:45:22.498Z,75.36
2019-03-22T07:47:29.198Z,74.92
2019-03-22T07:49:36.245Z,74.87
2019-03-22T07:51:42.929Z,75.23
2019-03-22T07:53:49.703Z,74.71
2019-03-22T07:55:56.461Z,75.05
2019-03-22T07:58:04.139Z,75.21
2019-03-22T08:00:13.218Z,74.73
2019-03-22T08:02:19.082Z,74.59
2019-03-22T08:04:25.614Z,74.48
2019-03-22T08:06:32.328Z,74.02
2019-03-22T08:08:39.072Z,74.05
2019-03-22T08:10:45.823Z,74.13
2019-03-22T08:12:52.849Z,73.94
2019-03-22T08:14:59.519Z,73.90
2019-03-22T08:17:06.196Z,73.10
2019-03-22T08:19:12.946Z,73.22
2019-03-22T08:21:19.669Z,73.19
2019-03-22T08:23:26.364Z,72.55
2019-03-22T08:25:33.092Z,71.88
2019-03-22T08:27:39.800Z,71.33
2019-03-22T08:29:46.485Z,70.39
2019-03-22T08:31:53.293Z,69.60
2019-03-22T08:33:59.951Z,69.04
2019-03-22T08:36:06.720Z,68.33
2019-03-22T08:38:13.453Z,67.22
2019-03-22T08:40:20.162Z,67.05
2019-03-22T08:42:27.079Z,66.33
2019-03-22T08:44:33.846Z,65.72
2019-03-22T08:46:40.542Z,65.05
2019-03-22T08:48:47.249Z,64.15
2019-03-22T08:50:54.165Z,63.63
2019-03-22T08:53:00.897Z,63.88
2019-03-22T08:55:08.056Z,64.31
2019-03-22T08:57:14.764Z,63.59
2019-03-22T08:59:21.438Z,62.20
2019-03-22T09:01:28.124Z,62.18
2019-03-22T09:03:34.903Z,62.16
2019-03-22T09:05:41.558Z,61.17
2019-03-22T09:07:48.231Z,59.77
2019-03-22T09:09:55.046Z,60.57
2019-03-22T09:12:01.704Z,60.76
2019-03-22T09:14:08.471Z,60.92
2019-03-22T09:16:15.378Z,60.87
2019-03-22T09:18:22.110Z,58.99
2019-03-22T09:20:28.814Z,58.97
2019-03-22T09:22:35.634Z,57.54
2019-03-22T09:24:43.605Z,56.32
2019-03-22T09:26:50.385Z,55.65
2019-03-22T09:28:57.090Z,52.55
2019-03-22T09:31:10.122Z,52.43
2019-03-22T09:33:13.469Z,52.53
2019-03-22T09:35:20.289Z,53.35
2019-03-22T09:37:27.148Z,54.60
2019-03-22T09:39:33.934Z,55.09
2019-03-22T09:41:40.673Z,55.27
2019-03-22T09:43:47.416Z,55.11
2019-03-22T09:45:54.104Z,55.05
2019-03-22T09:48:00.869Z,54.04
2019-03-22T09:50:11.600Z,52.59
2019-03-22T09:52:18.355Z,52.51
2019-03-22T09:54:25.013Z,52.29
2019-03-22T09:56:46.071Z,52.82
2019-03-22T09:58:41.657Z,53.73
2019-03-22T10:00:48.924Z,54.43
2019-03-22T10:02:57.539Z,53.85
2019-03-22T10:05:04.877Z,52.45
2019-03-22T10:07:11.581Z,51.92
2019-03-22T10:09:18.227Z,51.99
2019-03-22T10:11:24.938Z,51.61
2019-03-22T10:13:31.689Z,51.30
2019-03-22T10:15:38.326Z,51.38
2019-03-22T10:17:45.047Z,51.70
2019-03-22T10:19:51.835Z,51.24
2019-03-22T10:21:58.534Z,51.05
2019-03-22T10:24:05.364Z,50.75
2019-03-22T10:26:12.062Z,51.23
2019-03-22T10:28:18.813Z,50.90
2019-03-22T10:30:25.621Z,51.89
2019-03-22T10:32:32.348Z,52.19
2019-03-22T10:34:39.839Z,52.89
2019-03-22T10:36:46.916Z,52.56
2019-03-22T10:38:53.807Z,51.77
2019-03-22T10:41:00.538Z,51.09
2019-03-22T10:43:07.209Z,50.80
2019-03-22T10:45:14.244Z,49.91
2019-03-22T10:47:21.314Z,50.16
2019-03-22T10:49:29.051Z,50.63
2019-03-22T10:51:35.776Z,50.73
2019-03-22T10:53:42.447Z,50.54
2019-03-22T10:55:49.161Z,50.02
2019-03-22T10:57:55.924Z,49.48
2019-03-22T11:00:02.750Z,49.66
2019-03-22T11:02:11.113Z,49.44
2019-03-22T11:04:17.809Z,49.90
2019-03-22T11:06:26.398Z,50.36
2019-03-22T11:08:32.985Z,50.25
2019-03-22T11:10:39.677Z,50.13
2019-03-22T11:12:46.350Z,49.44
2019-03-22T11:14:53.077Z,49.73
2019-03-22T11:16:59.774Z,49.79
2019-03-22T11:19:07.540Z,50.16
2019-03-22T11:21:14.216Z,50.73
2019-03-22T11:23:20.906Z,50.92
2019-03-22T11:25:27.580Z,51.31
2019-03-22T11:27:34.247Z,51.79
2019-03-22T11:29:41.023Z,51.93
2019-03-22T11:31:47.674Z,50.95
2019-03-22T11:33:54.338Z,50.98
2019-03-22T11:36:01.102Z,50.65
2019-03-22T11:38:08.864Z,49.90
2019-03-22T11:40:20.083Z,49.97
2019-03-22T11:42:26.785Z,50.39
2019-03-22T11:44:33.618Z,50.27
2019-03-22T11:46:41.360Z,49.79
2019-03-22T11:48:48.070Z,49.63
2019-03-22T11:50:54.930Z,48.91
2019-03-22T11:53:01.602Z,48.42
2019-03-22T11:55:12.008Z,49.28
2019-03-22T11:57:19.868Z,49.43
2019-03-22T11:59:26.539Z,49.37
2019-03-22T12:01:34.232Z,50.01
2019-03-22T12:03:40.928Z,50.57
2019-03-22T12:05:47.664Z,50.28
2019-03-22T12:07:54.357Z,50.12
2019-03-22T12:10:01.024Z,49.54
2019-03-22T12:12:07.687Z,50.33
2019-03-22T12:14:14.379Z,50.49
2019-03-22T12:16:21.106Z,50.52
2019-03-22T12:18:27.776Z,50.45
2019-03-22T12:20:34.470Z,50.79
2019-03-22T12:22:41.142Z,49.48
2019-03-22T12:24:47.806Z,47.69
2019-03-22T12:26:54.504Z,47.64
2019-03-22T12:29:01.234Z,46.64
2019-03-22T12:31:07.904Z,46.49
2019-03-22T12:33:14.589Z,46.89
2019-03-22T12:35:21.652Z,46.76
2019-03-22T12:37:28.326Z,47.37
2019-03-22T12:39:35.008Z,47.91
2019-03-22T12:41:41.677Z,47.95
2019-03-22T12:43:48.359Z,47.61
2019-03-22T12:45:56.042Z,47.54
2019-03-22T12:48:02.792Z,47.34
2019-03-22T12:50:10.267Z,47.17
2019-03-22T12:52:16.978Z,46.15
2019-03-22T12:54:24.643Z,45.15
2019-03-22T12:56:32.475Z,45.64
2019-03-22T12:58:39.170Z,45.93
2019-03-22T13:00:45.843Z,46.39
2019-03-22T13:02:53.110Z,46.41
2019-03-22T13:04:59.802Z,46.06
2019-03-22T13:07:06.541Z,46.06
2019-03-22T13:09:13.286Z,46.29
2019-03-22T13:11:19.986Z,45.63
2019-03-22T13:13:26.650Z,45.22
2019-03-22T13:15:33.313Z,44.99
2019-03-22T13:17:40.000Z,45.44
2019-03-22T13:19:46.737Z,45.59
2019-03-22T13:21:53.482Z,45.73
2019-03-22T13:24:00.159Z,46.41
2019-03-22T13:26:06.893Z,46.58
2019-03-22T13:28:13.551Z,44.89
2019-03-22T13:30:32.625Z,45.09
2019-03-22T13:32:39.762Z,43.95
2019-03-22T13:34:46.431Z,43.35
2019-03-22T13:36:53.133Z,43.05
2019-03-22T13:38:59.795Z,42.15
2019-03-22T13:41:06.541Z,42.21
2019-03-22T13:43:13.250Z,40.49
2019-03-22T13:45:20.994Z,38.97
2019-03-22T13:47:27.673Z,39.01
2019-03-22T13:49:34.375Z,39.90
2019-03-22T13:51:41.041Z,40.61
2019-03-22T13:53:47.779Z,41.69
2019-03-22T13:55:54.484Z,42.48
2019-03-22T13:58:02.160Z,43.54
2019-03-22T14:00:20.218Z,43.37
2019-03-22T14:02:26.909Z,43.01
2019-03-22T14:04:33.633Z,42.91
2019-03-22T14:06:40.305Z,42.10
2019-03-22T14:08:47.013Z,42.23
2019-03-22T14:10:53.681Z,41.92
2019-03-22T14:13:03.062Z,42.17
2019-03-22T14:15:09.919Z,41.55
2019-03-22T14:17:17.818Z,40.98
2019-03-22T14:19:24.602Z,41.33
2019-03-22T14:21:31.295Z,40.41
2019-03-22T14:23:38.031Z,40.86
2019-03-22T14:25:44.895Z,41.30
2019-03-22T14:27:51.581Z,41.06
2019-03-22T14:29:58.314Z,41.01
2019-03-22T14:32:05.255Z,39.17
2019-03-22T14:34:12.018Z,38.83
2019-03-22T14:36:18.703Z,38.74
2019-03-22T14:38:25.355Z,38.73
2019-03-22T14:40:32.049Z,39.14
2019-03-22T14:42:38.790Z,39.78
2019-03-22T14:44:45.463Z,40.50
2019-03-22T14:46:52.172Z,40.68
2019-03-22T14:49:00.145Z,41.27
2019-03-22T14:51:06.812Z,41.32
2019-03-22T14:53:13.506Z,41.62
2019-03-22T14:55:20.244Z,41.86
2019-03-22T14:57:26.903Z,41.96
2019-03-22T14:59:33.590Z,40.44
2019-03-22T15:01:40.258Z,40.60
2019-03-22T15:03:46.996Z,40.85
2019-03-22T15:05:55.214Z,39.16
2019-03-22T15:08:01.952Z,38.33
2019-03-22T15:10:13.912Z,38.57
2019-03-22T15:12:20.782Z,37.70
2019-03-22T15:14:27.215Z,38.54
2019-03-22T15:16:50.565Z,39.12
2019-03-22T15:18:56.999Z,39.35
2019-03-22T15:21:03.681Z,39.90
2019-03-22T15:23:28.300Z,40.50
2019-03-22T15:25:42.602Z,41.07
2019-03-22T15:27:58.038Z,40.96
2019-03-22T15:30:20.894Z,41.05
2019-03-22T15:32:30.061Z,40.14
2019-03-22T15:34:38.372Z,39.38
2019-03-22T15:37:02.916Z,38.73
2019-03-22T15:39:11.640Z,38.43
2019-03-22T15:41:18.534Z,37.49
2019-03-22T15:43:25.276Z,37.41
2019-03-22T15:45:31.964Z,36.74
2019-03-22T15:47:38.699Z,37.40
2019-03-22T15:49:45.433Z,37.42
2019-03-22T15:51:53.118Z,36.92
2019-03-22T15:53:59.828Z,34.23
2019-03-22T15:56:06.612Z,33.81
2019-03-22T15:58:13.306Z,34.71
2019-03-22T16:00:20.660Z,34.74
2019-03-22T16:02:27.395Z,34.96
2019-03-22T16:04:34.149Z,34.46
2019-03-22T16:06:40.887Z,35.10
2019-03-22T16:08:47.573Z,35.08
2019-03-22T16:10:54.263Z,35.58
2019-03-22T16:13:00.939Z,34.91
2019-03-22T16:15:11.409Z,34.97
2019-03-22T16:17:18.191Z,34.86
2019-03-22T16:19:24.860Z,35.17
2019-03-22T16:21:31.614Z,35.54
2019-03-22T16:23:38.288Z,36.19
2019-03-22T16:25:45.027Z,35.60
2019-03-22T16:27:51.688Z,35.85
2019-03-22T16:29:58.386Z,36.24
2019-03-22T16:32:05.452Z,36.04
2019-03-22T16:34:12.108Z,36.46
2019-03-22T16:36:19.002Z,36.72
2019-03-22T16:38:25.756Z,36.77
2019-03-22T16:40:32.425Z,36.83
2019-03-22T16:42:39.123Z,37.10
2019-03-22T16:44:46.066Z,37.40
2019-03-22T16:46:52.742Z,37.63
2019-03-22T16:48:59.439Z,38.04
2019-03-22T16:51:06.114Z,38.18
2019-03-22T16:53:12.867Z,38.22
2019-03-22T16:55:20.640Z,38.21
2019-03-22T16:57:28.316Z,37.22
2019-03-22T16:59:35.031Z,37.20
2019-03-22T17:01:41.809Z,36.11
2019-03-22T17:03:48.489Z,36.29
2019-03-22T17:05:55.279Z,36.26
2019-03-22T17:08:04.861Z,36.71
2019-03-22T17:10:11.536Z,36.58
2019-03-22T17:12:18.292Z,36.48
2019-03-22T17:14:24.999Z,36.55
2019-03-22T17:16:31.808Z,37.02
2019-03-22T17:18:38.550Z,37.08
2019-03-22T17:20:45.313Z,36.79
2019-03-22T17:22:52.056Z,36.70
2019-03-22T17:24:58.744Z,36.93
2019-03-22T17:27:05.535Z,36.86
2019-03-22T17:29:12.507Z,37.19
2019-03-22T17:31:19.158Z,37.31
2019-03-22T17:33:25.904Z,37.09
2019-03-22T17:35:32.652Z,37.43
2019-03-22T17:37:39.477Z,37.57
2019-03-22T17:39:46.240Z,37.65
2019-03-22T17:41:52.982Z,37.80
2019-03-22T17:43:59.663Z,37.64
2019-03-22T17:46:06.561Z,37.60
2019-03-22T17:48:13.204Z,38.03
2019-03-22T17:50:21.475Z,37.28
2019-03-22T17:52:28.170Z,37.83
2019-03-22T17:54:34.870Z,37.82
2019-03-22T17:56:41.571Z,37.50
2019-03-22T17:58:48.334Z,37.04
2019-03-22T18:00:55.188Z,37.40
2019-03-22T18:03:03.599Z,37.35
2019-03-22T18:05:11.410Z,37.79
2019-03-22T18:07:18.582Z,37.98
2019-03-22T18:09:26.340Z,38.18
2019-03-22T18:11:33.238Z,37.59
2019-03-22T18:13:39.908Z,38.69
2019-03-22T18:15:46.583Z,38.51
2019-03-22T18:17:53.369Z,39.22
2019-03-22T18:20:00.233Z,39.33
2019-03-22T18:22:07.180Z,39.64
2019-03-22T18:24:13.853Z,40.34
2019-03-22T18:26:20.521Z,40.73
2019-03-22T18:28:27.261Z,40.45
2019-03-22T18:30:34.408Z,42.02
2019-03-22T18:32:41.222Z,40.35
2019-03-22T18:34:47.961Z,42.98
2019-03-22T18:36:55.873Z,42.87
2019-03-22T18:39:04.861Z,43.06
2019-03-22T18:41:11.641Z,43.71
2019-03-22T18:43:18.423Z,42.31
2019-03-22T18:45:26.565Z,41.71
2019-03-22T18:47:33.842Z,42.57
2019-03-22T18:49:40.666Z,42.27
2019-03-22T18:51:48.787Z,42.66
2019-03-22T18:53:55.529Z,42.49
2019-03-22T18:56:03.433Z,42.69
2019-03-22T18:58:10.104Z,42.26
2019-03-22T19:00:20.567Z,41.62
2019-03-22T19:02:27.274Z,41.43
2019-03-22T19:04:43.617Z,41.58
2019-03-22T19:06:42.328Z,40.94
2019-03-22T19:08:49.033Z,41.36
2019-03-22T19:10:55.714Z,41.74
2019-03-22T19:13:02.381Z,41.93
2019-03-22T19:15:16.205Z,42.02
2019-03-22T19:17:22.965Z,42.85
2019-03-22T19:19:29.705Z,42.45
2019-03-22T19:21:37.835Z,42.64
2019-03-22T19:23:44.574Z,42.73
2019-03-22T19:25:53.112Z,43.83
2019-03-22T19:27:59.848Z,45.99
2019-03-22T19:30:13.940Z,44.59
2019-03-22T19:32:20.644Z,46.74
2019-03-22T19:34:29.908Z,48.13
2019-03-22T19:36:37.061Z,47.97
2019-03-22T19:38:43.800Z,47.79
2019-03-22T19:40:50.566Z,46.96
2019-03-22T19:42:57.232Z,47.33
2019-03-22T19:45:08.513Z,46.98
2019-03-22T19:47:15.219Z,47.42
2019-03-22T19:49:21.952Z,47.49
2019-03-22T19:51:28.699Z,47.83
2019-03-22T19:53:35.456Z,48.00
2019-03-22T19:55:42.201Z,47.73
2019-03-22T19:57:49.549Z,48.76
2019-03-22T19:59:56.308Z,48.58
2019-03-22T20:02:03.048Z,48.33
2019-03-22T20:04:10.024Z,49.52
2019-03-22T20:06:16.831Z,50.15
2019-03-22T20:08:23.563Z,50.57
2019-03-22T20:10:30.593Z,50.57
2019-03-22T20:12:38.821Z,50.87
2019-03-22T20:14:48.035Z,51.56
2019-03-22T20:16:54.775Z,52.89
2019-03-22T20:19:02.142Z,53.44
2019-03-22T20:21:08.908Z,54.21
2019-03-22T20:23:15.647Z,53.21
2019-03-22T20:25:22.422Z,52.52
2019-03-22T20:27:29.164Z,51.92
2019-03-22T20:29:35.903Z,50.50
2019-03-22T20:31:42.598Z,49.15
2019-03-22T20:33:49.382Z,48.39
2019-03-22T20:35:56.148Z,47.59
2019-03-22T20:38:02.913Z,47.54
2019-03-22T20:40:16.395Z,47.46
2019-03-22T20:42:23.141Z,47.24
2019-03-22T20:44:34.181Z,47.57
2019-03-22T20:46:42.012Z,47.50
2019-03-22T20:48:48.797Z,47.72
2019-03-22T20:50:56.597Z,47.87
2019-03-22T20:53:03.263Z,48.53
2019-03-22T20:55:11.241Z,47.63
2019-03-22T20:57:17.939Z,47.97
2019-03-22T20:59:24.806Z,47.85
2019-03-22T21:01:33.350Z,47.98
2019-03-22T21:03:41.878Z,47.93
2019-03-22T21:05:48.553Z,47.83
2019-03-22T21:07:57.033Z,48.04
2019-03-22T21:10:04.424Z,47.59
2019-03-22T21:12:11.172Z,47.84
2019-03-22T21:14:17.906Z,47.82
2019-03-22T21:16:24.677Z,47.92
2019-03-22T21:18:31.400Z,47.99
2019-03-22T21:20:38.144Z,47.69
2019-03-22T21:22:44.912Z,47.91
2019-03-22T21:24:51.687Z,47.88
2019-03-22T21:26:58.434Z,47.92
2019-03-22T21:29:05.131Z,47.85
2019-03-22T21:31:45.613Z,47.99
2019-03-22T21:33:54.000Z,48.32
2019-03-22T21:36:00.734Z,48.52
2019-03-22T21:38:11.194Z,48.55
2019-03-22T21:40:16.882Z,48.49
2019-03-22T21:42:25.123Z,48.92
2019-03-22T21:44:31.857Z,49.12
2019-03-22T21:46:38.530Z,50.07
2019-03-22T21:48:45.227Z,50.23
2019-03-22T21:50:51.908Z,50.40
2019-03-22T21:52:58.646Z,50.68
2019-03-22T21:55:07.743Z,50.79
2019-03-22T21:57:13.535Z,51.33
2019-03-22T21:59:20.064Z,50.87
2019-03-22T22:01:26.767Z,51.41
2019-03-22T22:03:33.499Z,51.43
2019-03-22T22:05:47.692Z,51.25
2019-03-22T22:07:48.703Z,51.89
2019-03-22T22:09:55.451Z,51.63
2019-03-22T22:12:02.121Z,51.88
2019-03-22T22:14:10.261Z,52.06
2019-03-22T22:16:16.927Z,52.16
2019-03-22T22:18:23.671Z,52.97
2019-03-22T22:20:30.398Z,53.25
2019-03-22T22:22:37.073Z,52.90
2019-03-22T22:24:43.751Z,53.41
2019-03-22T22:26:50.590Z,54.03
2019-03-22T22:28:57.272Z,54.10
2019-03-22T22:31:04.021Z,54.31
2019-03-22T22:33:12.795Z,54.30
2019-03-22T22:35:19.471Z,55.29
2019-03-22T22:37:26.211Z,56.22
2019-03-22T22:39:32.914Z,57.72
2019-03-22T22:41:39.589Z,58.30
2019-03-22T22:43:46.264Z,59.46
2019-03-22T22:45:52.961Z,59.25
2019-03-22T22:47:59.694Z,59.10
2019-03-22T22:50:13.679Z,59.83
2019-03-22T22:52:20.372Z,60.48
2019-03-22T22:54:27.349Z,60.61
2019-03-22T22:56:34.087Z,60.83
2019-03-22T22:58:40.862Z,60.51
2019-03-22T23:00:49.003Z,60.31
2019-03-22T23:02:57.200Z,60.54
2019-03-22T23:05:04.360Z,60.73
2019-03-22T23:07:11.028Z,61.08
2019-03-22T23:09:17.765Z,61.00
2019-03-22T23:11:24.466Z,61.17
2019-03-22T23:13:31.219Z,61.17
2019-03-22T23:15:37.901Z,61.29
2019-03-22T23:17:44.680Z,61.75
2019-03-22T23:19:51.366Z,62.29
2019-03-22T23:21:58.070Z,62.60
2019-03-22T23:24:04.765Z,62.76
2019-03-22T23:26:11.444Z,63.01
2019-03-22T23:28:18.110Z,62.85
2019-03-22T23:30:24.891Z,62.77
2019-03-22T23:32:31.571Z,63.27
2019-03-22T23:34:38.446Z,63.43
2019-03-22T23:36:45.289Z,63.61
2019-03-22T23:38:51.956Z,63.76
2019-03-22T23:40:58.697Z,63.82
2019-03-22T23:43:05.468Z,63.89
2019-03-22T23:45:12.727Z,63.98
2019-03-22T23:47:19.419Z,64.30
2019-03-22T23:49:26.202Z,64.46
2019-03-22T23:51:32.971Z,64.53
2019-03-22T23:53:39.660Z,64.62
2019-03-22T23:55:46.353Z,64.91
2019-03-22T23:57:53.020Z,65.41
2019-03-22T23:59:59.688Z,65.20
